createdAt,value
2019-04-26T00:00:33.782Z,63.63
2019-04-26T00:01:33.782Z,63.43
2019-04-26T00:02:33.762Z,63.23
2019-04-26T00:03:33.748Z,63.12
2019-04-26T00:04:33.732Z,63.23
2019-04-26T00:05:36.591Z,63.09
2019-04-26T00:06:34.051Z,63.09
2019-04-26T00:07:34.201Z,62.99
2019-04-26T00:08:33.703Z,62.79
2019-04-26T00:09:33.681Z,62.69
2019-04-26T00:10:33.682Z,62.49
2019-04-26T00:11:34.015Z,62.38
2019-04-26T00:12:33.691Z,62.26
2019-04-26T00:13:33.651Z,62.18
2019-04-26T00:14:33.640Z,62.38
2019-04-26T00:15:33.612Z,62.38
2019-04-26T00:16:33.602Z,62.59
2019-04-26T00:17:33.642Z,62.69
2019-04-26T00:18:33.581Z,62.79
2019-04-26T00:19:33.580Z,62.89
2019-04-26T00:20:33.564Z,62.99
2019-04-26T00:21:33.549Z,63.23
2019-04-26T00:22:33.553Z,63.12
2019-04-26T00:23:33.879Z,63.43
2019-04-26T00:24:33.542Z,63.43
2019-04-26T00:25:33.511Z,63.23
2019-04-26T00:26:33.492Z,63.53
2019-04-26T00:27:33.499Z,63.73
2019-04-26T00:28:33.486Z,63.96
2019-04-26T00:29:33.527Z,64.50
2019-04-26T00:30:33.451Z,65.11
2019-04-26T00:31:33.442Z,65.85
2019-04-26T00:32:33.451Z,66.19
2019-04-26T00:33:33.426Z,66.69
2019-04-26T00:34:33.423Z,66.90
2019-04-26T00:35:33.741Z,66.60
2019-04-26T00:36:33.400Z,66.80
2019-04-26T00:37:33.380Z,66.90
2019-04-26T00:38:33.361Z,66.90
2019-04-26T00:39:33.366Z,67.20
2019-04-26T00:40:33.351Z,67.33
2019-04-26T00:41:33.631Z,67.54
2019-04-26T00:42:33.620Z,67.50
2019-04-26T00:43:33.310Z,67.30
2019-04-26T00:44:33.301Z,67.54
2019-04-26T00:45:33.291Z,67.64
2019-04-26T00:46:33.290Z,67.84
2019-04-26T00:47:33.303Z,68.15
2019-04-26T00:48:33.265Z,68.38
2019-04-26T00:49:43.089Z,68.49
2019-04-26T00:50:34.241Z,68.38
2019-04-26T00:51:33.243Z,68.49
2019-04-26T00:52:33.234Z,68.59
2019-04-26T00:53:33.334Z,68.59
2019-04-26T00:54:33.240Z,68.79
2019-04-26T00:55:33.179Z,68.69
2019-04-26T00:56:33.462Z,68.59
2019-04-26T00:57:33.173Z,68.69
2019-04-26T00:58:33.636Z,68.99
2019-04-26T00:59:33.291Z,68.99
2019-04-26T01:00:33.139Z,68.79
2019-04-26T01:01:33.110Z,68.79
2019-04-26T01:02:33.270Z,68.89
2019-04-26T01:03:33.450Z,68.76
2019-04-26T01:04:33.202Z,68.22
2019-04-26T01:05:33.138Z,67.61
2019-04-26T01:06:33.078Z,67.41
2019-04-26T01:07:33.050Z,67.20
2019-04-26T01:08:33.050Z,67.17
2019-04-26T01:09:33.051Z,66.77
2019-04-26T01:10:33.313Z,66.56
2019-04-26T01:11:33.057Z,66.66
2019-04-26T01:12:33.011Z,66.90
2019-04-26T01:13:33.001Z,67.10
2019-04-26T01:14:32.979Z,67.50
2019-04-26T01:15:32.960Z,67.30
2019-04-26T01:16:32.961Z,67.50
2019-04-26T01:17:33.472Z,67.30
2019-04-26T01:18:32.930Z,67.61
2019-04-26T01:19:32.956Z,67.81
2019-04-26T01:20:32.912Z,67.81
2019-04-26T01:21:32.899Z,67.91
2019-04-26T01:22:32.912Z,67.81
2019-04-26T01:23:32.928Z,67.61
2019-04-26T01:24:33.157Z,67.41
2019-04-26T01:25:32.851Z,67.71
2019-04-26T01:26:33.560Z,67.84
2019-04-26T01:27:32.838Z,68.49
2019-04-26T01:28:32.819Z,69.09
2019-04-26T01:29:32.866Z,69.64
2019-04-26T01:30:32.807Z,69.94
2019-04-26T01:31:32.804Z,70.25
2019-04-26T01:32:32.783Z,70.55
2019-04-26T01:33:32.759Z,70.58
2019-04-26T01:34:32.749Z,70.79
2019-04-26T01:35:32.818Z,71.09
2019-04-26T01:36:32.732Z,70.99
2019-04-26T01:37:33.019Z,71.40
2019-04-26T01:38:32.709Z,71.50
2019-04-26T01:39:32.709Z,71.06
2019-04-26T01:40:32.698Z,70.55
2019-04-26T01:41:32.718Z,70.11
2019-04-26T01:42:32.827Z,69.30
2019-04-26T01:43:32.844Z,69.40
2019-04-26T01:44:33.063Z,69.74
2019-04-26T01:45:32.651Z,70.25
2019-04-26T01:46:32.808Z,70.68
2019-04-26T01:47:32.851Z,70.99
2019-04-26T01:48:32.738Z,71.64
2019-04-26T01:49:32.884Z,71.94
2019-04-26T01:50:32.669Z,72.34
2019-04-26T01:51:32.971Z,72.25
2019-04-26T01:52:32.694Z,72.25
2019-04-26T01:53:33.056Z,72.55
2019-04-26T01:54:32.556Z,72.14
2019-04-26T01:55:32.539Z,72.25
2019-04-26T01:56:32.518Z,72.01
2019-04-26T01:57:32.509Z,71.73
2019-04-26T01:58:32.801Z,72.34
2019-04-26T01:59:32.537Z,72.45
2019-04-26T02:03:19.231Z,73.19
2019-04-26T02:04:17.318Z,73.06
2019-04-26T02:05:17.309Z,73.06
2019-04-26T02:06:25.299Z,72.65
2019-04-26T02:07:18.287Z,72.75
2019-04-26T02:08:17.260Z,72.55
2019-04-26T02:09:17.587Z,72.55
2019-04-26T02:10:17.259Z,72.45
2019-04-26T02:11:17.247Z,72.65
2019-04-26T02:12:17.227Z,72.99
2019-04-26T02:13:17.229Z,73.50
2019-04-26T02:14:18.094Z,74.04
2019-04-26T02:15:17.247Z,74.45
2019-04-26T02:16:17.188Z,74.76
2019-04-26T02:17:17.185Z,74.96
2019-04-26T02:18:17.167Z,75.10
2019-04-26T02:19:17.156Z,75.20
2019-04-26T02:20:17.147Z,75.20
2019-04-26T02:21:17.508Z,75.30
2019-04-26T02:22:17.137Z,75.60
2019-04-26T02:23:17.116Z,75.95
2019-04-26T02:24:17.115Z,76.35
2019-04-26T02:25:17.097Z,76.46
2019-04-26T02:26:17.085Z,76.25
2019-04-26T02:27:17.116Z,76.12
2019-04-26T02:28:17.376Z,76.25
2019-04-26T02:29:17.057Z,76.01
2019-04-26T02:30:17.049Z,75.81
2019-04-26T02:31:17.035Z,75.92
2019-04-26T02:32:17.017Z,76.01
2019-04-26T02:33:17.052Z,76.12
2019-04-26T02:34:16.998Z,76.12
2019-04-26T02:35:17.311Z,76.25
2019-04-26T02:36:16.987Z,76.25
2019-04-26T02:37:16.966Z,76.35
2019-04-26T02:38:16.957Z,76.66
2019-04-26T02:39:17.795Z,76.87
2019-04-26T02:40:16.953Z,76.53
2019-04-26T02:41:16.928Z,76.12
2019-04-26T02:42:17.215Z,76.35
2019-04-26T02:43:16.949Z,76.56
2019-04-26T02:44:16.895Z,76.01
2019-04-26T02:45:16.923Z,76.01
2019-04-26T02:46:16.865Z,76.22
2019-04-26T02:47:16.857Z,76.01
2019-04-26T02:48:16.863Z,75.57
2019-04-26T02:49:17.147Z,74.86
2019-04-26T02:50:16.847Z,74.45
2019-04-26T02:51:16.891Z,74.76
2019-04-26T02:52:16.808Z,75.30
2019-04-26T02:53:16.794Z,75.40
2019-04-26T02:54:16.784Z,75.51
2019-04-26T02:55:16.782Z,75.81
2019-04-26T02:56:17.065Z,75.81
2019-04-26T02:57:17.024Z,76.01
2019-04-26T02:58:16.743Z,76.01
2019-04-26T02:59:16.743Z,76.22
2019-04-26T03:00:16.995Z,75.81
2019-04-26T03:01:17.022Z,76.15
2019-04-26T03:02:16.704Z,76.35
2019-04-26T03:03:16.734Z,76.46
2019-04-26T03:04:16.673Z,76.46
2019-04-26T03:05:16.683Z,76.35
2019-04-26T03:06:16.660Z,76.46
2019-04-26T03:07:16.743Z,76.87
2019-04-26T03:08:16.712Z,76.87
2019-04-26T03:09:17.275Z,77.11
2019-04-26T03:10:16.614Z,77.31
2019-04-26T03:11:17.389Z,77.62
2019-04-26T03:12:16.585Z,77.62
2019-04-26T03:13:16.573Z,77.92
2019-04-26T03:14:16.573Z,77.72
2019-04-26T03:15:16.624Z,77.58
2019-04-26T03:16:17.740Z,76.53
2019-04-26T03:17:16.533Z,75.57
2019-04-26T03:18:16.523Z,74.76
2019-04-26T03:19:16.512Z,74.32
2019-04-26T03:20:16.513Z,74.32
2019-04-26T03:21:16.523Z,74.11
2019-04-26T03:22:16.482Z,74.25
2019-04-26T03:23:16.774Z,74.65
2019-04-26T03:24:16.465Z,75.51
2019-04-26T03:25:16.449Z,76.56
2019-04-26T03:26:16.441Z,77.21
2019-04-26T03:27:16.464Z,77.82
2019-04-26T03:28:16.427Z,78.23
2019-04-26T03:29:16.411Z,78.37
2019-04-26T03:30:21.542Z,78.57
2019-04-26T03:31:17.731Z,78.67
2019-04-26T03:32:17.257Z,78.98
2019-04-26T03:33:16.911Z,78.88
2019-04-26T03:34:16.758Z,79.32
2019-04-26T03:35:16.345Z,79.73
2019-04-26T03:36:16.350Z,79.73
2019-04-26T03:37:20.611Z,79.63
2019-04-26T03:38:16.310Z,79.73
2019-04-26T03:39:16.340Z,80.04
2019-04-26T03:40:16.291Z,79.93
2019-04-26T03:41:16.273Z,79.49
2019-04-26T03:42:16.263Z,78.64
2019-04-26T03:43:16.265Z,78.02
2019-04-26T03:44:16.547Z,77.58
2019-04-26T03:45:16.271Z,77.37
2019-04-26T03:46:16.226Z,76.93
2019-04-26T03:47:16.211Z,76.62
2019-04-26T03:48:16.200Z,76.53
2019-04-26T03:49:16.190Z,76.83
2019-04-26T03:50:16.193Z,76.42
2019-04-26T03:51:16.650Z,76.53
2019-04-26T03:52:16.157Z,76.62
2019-04-26T03:53:16.148Z,76.62
2019-04-26T03:54:16.140Z,76.87
2019-04-26T03:55:16.129Z,77.48
2019-04-26T03:56:16.126Z,77.78
2019-04-26T03:57:16.155Z,77.78
2019-04-26T03:58:16.407Z,77.89
2019-04-26T03:59:16.087Z,78.02
2019-04-26T04:00:16.070Z,78.23
2019-04-26T04:01:16.060Z,78.43
2019-04-26T04:02:16.050Z,78.88
2019-04-26T04:03:16.079Z,79.18
2019-04-26T04:04:16.039Z,79.59
2019-04-26T04:05:16.330Z,79.49
2019-04-26T04:06:16.011Z,79.69
2019-04-26T04:07:15.999Z,79.59
2019-04-26T04:08:16.000Z,79.04
2019-04-26T04:09:18.025Z,78.43
2019-04-26T04:10:15.960Z,78.19
2019-04-26T04:11:15.949Z,77.89
2019-04-26T04:12:16.299Z,77.78
2019-04-26T04:13:15.929Z,77.68
2019-04-26T04:14:15.974Z,77.78
2019-04-26T04:15:15.958Z,77.78
2019-04-26T04:16:15.898Z,77.68
2019-04-26T04:17:15.892Z,78.19
2019-04-26T04:18:15.889Z,78.30
2019-04-26T04:19:16.241Z,78.30
2019-04-26T04:20:15.865Z,78.39
2019-04-26T04:21:15.886Z,78.50
2019-04-26T04:22:15.828Z,78.64
2019-04-26T04:23:15.818Z,79.14
2019-04-26T04:24:15.825Z,79.66
2019-04-26T04:25:15.841Z,79.86
2019-04-26T04:26:16.261Z,80.10
2019-04-26T04:27:15.856Z,80.30
2019-04-26T04:28:15.767Z,80.41
2019-04-26T04:29:15.757Z,80.41
2019-04-26T04:30:15.746Z,80.51
2019-04-26T04:31:15.738Z,80.51
2019-04-26T04:32:15.725Z,80.51
2019-04-26T04:33:15.746Z,80.61
2019-04-26T04:34:15.697Z,80.91
2019-04-26T04:35:15.687Z,80.91
2019-04-26T04:36:15.679Z,80.82
2019-04-26T04:37:15.668Z,80.51
2019-04-26T04:38:15.657Z,80.57
2019-04-26T04:39:15.976Z,80.37
2019-04-26T04:40:15.661Z,80.37
2019-04-26T04:41:15.634Z,80.16
2019-04-26T04:42:15.624Z,79.62
2019-04-26T04:43:15.721Z,78.97
2019-04-26T04:44:15.595Z,78.66
2019-04-26T04:45:15.657Z,78.26
2019-04-26T04:46:15.719Z,77.95
2019-04-26T04:47:24.169Z,78.02
2019-04-26T04:48:16.556Z,78.02
2019-04-26T04:49:15.544Z,77.91
2019-04-26T04:50:15.525Z,77.51
2019-04-26T04:51:15.853Z,77.51
2019-04-26T04:52:15.516Z,77.95
2019-04-26T04:53:15.497Z,78.66
2019-04-26T04:54:15.486Z,78.97
2019-04-26T04:55:15.475Z,79.07
2019-04-26T04:56:15.465Z,78.87
2019-04-26T04:57:15.494Z,78.56
2019-04-26T04:58:15.447Z,78.97
2019-04-26T04:59:15.435Z,79.17
2019-04-26T05:00:15.427Z,79.38
2019-04-26T05:01:15.414Z,79.52
2019-04-26T05:02:15.415Z,79.93
2019-04-26T05:03:15.674Z,79.89
2019-04-26T05:04:15.385Z,79.38
2019-04-26T05:05:15.376Z,79.38
2019-04-26T05:06:15.384Z,79.38
2019-04-26T05:07:15.727Z,79.68
2019-04-26T05:08:15.443Z,79.48
2019-04-26T05:09:15.694Z,79.38
2019-04-26T05:10:15.341Z,79.79
2019-04-26T05:11:15.313Z,79.58
2019-04-26T05:12:15.293Z,79.89
2019-04-26T05:13:15.291Z,79.89
2019-04-26T05:14:15.274Z,79.68
2019-04-26T05:15:15.323Z,79.24
2019-04-26T05:16:17.186Z,78.49
2019-04-26T05:17:15.253Z,77.87
2019-04-26T05:18:15.233Z,77.23
2019-04-26T05:19:15.233Z,77.03
2019-04-26T05:20:15.206Z,76.72
2019-04-26T05:21:15.253Z,76.48
2019-04-26T05:22:15.185Z,76.28
2019-04-26T05:23:15.462Z,75.87
2019-04-26T05:24:15.163Z,75.53
2019-04-26T05:25:15.153Z,75.33
2019-04-26T05:26:15.147Z,75.12
2019-04-26T05:27:15.190Z,75.02
2019-04-26T05:28:15.132Z,75.67
2019-04-26T05:29:15.111Z,76.28
2019-04-26T05:30:15.382Z,76.62
2019-04-26T05:31:15.412Z,77.37
2019-04-26T05:32:15.089Z,77.98
2019-04-26T05:33:15.104Z,77.98
2019-04-26T05:34:15.055Z,78.08
2019-04-26T05:35:15.042Z,78.39
2019-04-26T05:36:15.031Z,78.28
2019-04-26T05:37:15.461Z,78.19
2019-04-26T05:38:18.671Z,78.19
2019-04-26T05:39:15.056Z,78.39
2019-04-26T05:40:15.029Z,78.39
2019-04-26T05:41:15.040Z,78.28
2019-04-26T05:42:14.998Z,78.08
2019-04-26T05:43:14.970Z,78.28
2019-04-26T05:44:15.231Z,78.59
2019-04-26T05:45:15.731Z,78.89
2019-04-26T05:46:14.922Z,78.69
2019-04-26T05:47:14.917Z,78.15
2019-04-26T05:48:14.901Z,77.60
2019-04-26T05:49:14.890Z,77.20
2019-04-26T05:50:14.881Z,76.55
2019-04-26T05:51:15.191Z,76.04
2019-04-26T05:52:15.622Z,75.84
2019-04-26T05:53:14.858Z,75.53
2019-04-26T05:54:14.921Z,75.53
2019-04-26T05:55:14.829Z,75.53
2019-04-26T05:56:14.819Z,75.94
2019-04-26T05:57:15.122Z,75.84
2019-04-26T05:58:15.830Z,76.04
2019-04-26T05:59:14.790Z,75.94
2019-04-26T06:00:14.799Z,76.59
2019-04-26T06:01:14.770Z,77.23
2019-04-26T06:02:14.760Z,77.33
2019-04-26T06:03:14.780Z,77.64
2019-04-26T06:04:14.741Z,77.84
2019-04-26T06:05:15.021Z,78.45
2019-04-26T06:06:14.730Z,77.94
2019-04-26T06:07:14.709Z,78.15
2019-04-26T06:08:14.762Z,78.15
2019-04-26T06:09:14.775Z,78.05
2019-04-26T06:10:14.679Z,78.69
2019-04-26T06:11:14.662Z,78.59
2019-04-26T06:12:14.939Z,78.66
2019-04-26T06:13:14.639Z,77.94
2019-04-26T06:14:14.639Z,77.91
2019-04-26T06:15:14.669Z,77.81
2019-04-26T06:16:14.610Z,77.94
2019-04-26T06:17:14.606Z,78.05
2019-04-26T06:18:14.633Z,78.05
2019-04-26T06:19:14.587Z,78.05
2019-04-26T06:20:22.887Z,78.35
2019-04-26T06:21:15.598Z,78.45
2019-04-26T06:22:14.548Z,78.66
2019-04-26T06:23:14.538Z,78.15
2019-04-26T06:24:14.531Z,78.05
2019-04-26T06:25:14.828Z,77.74
2019-04-26T06:26:14.507Z,77.74
2019-04-26T06:27:14.579Z,77.23
2019-04-26T06:28:14.677Z,77.09
2019-04-26T06:29:14.476Z,76.72
2019-04-26T06:30:14.498Z,76.52
2019-04-26T06:31:14.463Z,76.82
2019-04-26T06:32:14.438Z,77.13
2019-04-26T06:33:15.269Z,77.06
2019-04-26T06:34:15.257Z,77.47
2019-04-26T06:35:14.414Z,77.37
2019-04-26T06:36:14.461Z,77.26
2019-04-26T06:37:14.668Z,77.37
2019-04-26T06:38:14.387Z,77.06
2019-04-26T06:39:15.251Z,77.06
2019-04-26T06:40:14.359Z,77.06
2019-04-26T06:41:14.344Z,77.06
2019-04-26T06:42:15.187Z,77.37
2019-04-26T06:43:14.917Z,77.03
2019-04-26T06:44:14.309Z,76.92
2019-04-26T06:45:14.347Z,77.17
2019-04-26T06:46:15.048Z,77.37
2019-04-26T06:47:14.278Z,77.26
2019-04-26T06:48:14.281Z,77.23
2019-04-26T06:49:14.266Z,76.82
2019-04-26T06:50:15.046Z,77.13
2019-04-26T06:51:24.033Z,76.42
2019-04-26T06:52:15.226Z,76.52
2019-04-26T06:53:14.218Z,76.18
2019-04-26T06:54:14.218Z,76.07
2019-04-26T06:55:14.667Z,76.07
2019-04-26T06:56:14.198Z,76.52
2019-04-26T06:57:15.351Z,77.23
2019-04-26T06:58:15.025Z,77.64
2019-04-26T06:59:14.146Z,77.13
2019-04-26T07:00:14.182Z,77.03
2019-04-26T07:01:14.858Z,77.26
2019-04-26T07:02:15.365Z,77.57
2019-04-26T07:03:14.203Z,77.53
2019-04-26T07:04:14.096Z,77.37
2019-04-26T07:05:15.346Z,77.67
2019-04-26T07:06:14.074Z,77.64
2019-04-26T07:07:14.079Z,77.53
2019-04-26T07:08:14.061Z,77.33
2019-04-26T07:09:14.436Z,77.23
2019-04-26T07:10:14.035Z,77.37
2019-04-26T07:11:14.020Z,77.37
2019-04-26T07:12:14.014Z,77.37
2019-04-26T07:13:14.862Z,77.26
2019-04-26T07:14:14.014Z,77.06
2019-04-26T07:15:14.034Z,77.06
2019-04-26T07:16:22.454Z,76.92
2019-04-26T07:17:14.958Z,76.72
2019-04-26T07:18:14.454Z,76.28
2019-04-26T07:19:13.938Z,75.87
2019-04-26T07:20:13.924Z,75.43
2019-04-26T07:21:14.535Z,75.23
2019-04-26T07:22:13.903Z,74.55
2019-04-26T07:23:14.365Z,74.45
2019-04-26T07:24:13.922Z,74.45
2019-04-26T07:25:13.874Z,74.24
2019-04-26T07:26:14.012Z,74.11
2019-04-26T07:27:13.955Z,73.50
2019-04-26T07:28:14.670Z,73.39
2019-04-26T07:29:13.853Z,73.50
2019-04-26T07:30:13.860Z,73.63
2019-04-26T07:31:13.843Z,73.91
2019-04-26T07:32:13.825Z,73.60
2019-04-26T07:33:13.874Z,73.60
2019-04-26T07:34:14.480Z,73.30
2019-04-26T07:35:13.787Z,73.54
2019-04-26T07:36:13.766Z,73.54
2019-04-26T07:37:13.840Z,73.84
2019-04-26T07:38:13.767Z,73.60
2019-04-26T07:39:19.918Z,73.60
2019-04-26T07:40:14.712Z,73.60
2019-04-26T07:41:13.763Z,73.39
2019-04-26T07:42:14.110Z,72.89
2019-04-26T07:43:13.727Z,72.55
2019-04-26T07:44:13.801Z,72.14
2019-04-26T07:45:13.963Z,72.25
2019-04-26T07:46:13.663Z,72.14
2019-04-26T07:47:14.355Z,72.25
2019-04-26T07:48:14.599Z,71.94
2019-04-26T07:49:13.652Z,71.50
2019-04-26T07:50:14.174Z,71.50
2019-04-26T07:51:13.806Z,71.50
2019-04-26T07:52:13.762Z,71.94
2019-04-26T07:53:13.625Z,72.04
2019-04-26T07:54:15.036Z,72.25
2019-04-26T07:55:13.561Z,72.14
2019-04-26T07:56:13.662Z,72.14
2019-04-26T07:57:13.616Z,71.94
2019-04-26T07:58:13.550Z,72.28
2019-04-26T07:59:13.512Z,72.28
2019-04-26T08:00:13.555Z,72.28
2019-04-26T08:01:14.157Z,72.38
2019-04-26T08:02:13.488Z,72.04
2019-04-26T08:03:13.542Z,71.73
2019-04-26T08:04:13.984Z,71.33
2019-04-26T08:05:13.581Z,71.33
2019-04-26T08:06:13.694Z,71.26
2019-04-26T08:07:13.478Z,71.47
2019-04-26T08:08:14.930Z,71.47
2019-04-26T08:09:26.631Z,71.67
2019-04-26T08:10:14.723Z,71.77
2019-04-26T08:11:13.464Z,71.73
2019-04-26T08:12:14.141Z,71.23
2019-04-26T08:13:13.391Z,71.12
2019-04-26T08:14:13.362Z,70.99
2019-04-26T08:15:13.770Z,70.68
2019-04-26T08:16:14.762Z,70.28
2019-04-26T08:17:14.857Z,70.28
2019-04-26T08:18:15.243Z,70.72
2019-04-26T08:19:16.072Z,70.82
2019-04-26T08:20:15.486Z,71.03
2019-04-26T08:21:17.787Z,70.89
2019-04-26T08:22:20.382Z,71.23
2019-04-26T08:23:34.967Z,71.40
2019-04-26T08:24:14.251Z,71.20
2019-04-26T08:25:13.260Z,71.60
2019-04-26T08:26:13.486Z,71.30
2019-04-26T08:27:21.143Z,71.73
2019-04-26T08:28:14.344Z,72.25
2019-04-26T08:29:13.214Z,72.17
2019-04-26T08:30:16.104Z,73.09
2019-04-26T08:31:15.558Z,73.50
2019-04-26T08:32:15.619Z,73.33
2019-04-26T08:33:14.657Z,73.84
2019-04-26T08:34:14.346Z,74.76
2019-04-26T08:35:17.211Z,75.37
2019-04-26T08:36:14.729Z,75.26
2019-04-26T08:37:13.130Z,75.98
2019-04-26T08:38:19.500Z,76.38
2019-04-26T08:39:14.118Z,75.98
2019-04-26T08:40:21.598Z,76.38
2019-04-26T08:41:14.103Z,77.40
2019-04-26T08:42:20.520Z,76.89
2019-04-26T08:43:14.142Z,78.01
2019-04-26T08:44:13.070Z,76.79
2019-04-26T08:45:14.931Z,76.79
2019-04-26T08:46:13.183Z,76.92
2019-04-26T08:47:18.807Z,77.53
2019-04-26T08:48:15.138Z,77.23
2019-04-26T08:49:13.159Z,77.70
2019-04-26T08:50:13.661Z,77.13
2019-04-26T08:51:19.787Z,77.33
2019-04-26T08:52:14.905Z,78.45
2019-04-26T08:53:12.967Z,78.11
2019-04-26T08:54:12.937Z,77.94
2019-04-26T08:55:13.008Z,77.23
2019-04-26T08:56:15.261Z,78.05
2019-04-26T08:57:12.938Z,78.05
2019-04-26T08:58:13.742Z,77.40
2019-04-26T08:59:12.916Z,77.09
2019-04-26T09:00:15.440Z,77.50
2019-04-26T09:01:13.004Z,77.53
2019-04-26T09:02:13.489Z,78.05
2019-04-26T09:03:12.884Z,78.31
2019-04-26T09:04:12.894Z,77.60
2019-04-26T09:05:13.248Z,77.60
2019-04-26T09:06:12.807Z,77.20
2019-04-26T09:07:12.898Z,77.06
2019-04-26T09:08:12.786Z,77.06
2019-04-26T09:09:14.306Z,76.41
2019-04-26T09:10:14.409Z,76.41
2019-04-26T09:11:22.777Z,75.76
2019-04-26T09:12:22.907Z,75.56
2019-04-26T09:13:13.807Z,75.46
2019-04-26T09:14:13.317Z,75.22
2019-04-26T09:15:13.600Z,74.55
2019-04-26T09:16:13.473Z,75.40
2019-04-26T09:17:13.777Z,76.72
2019-04-26T09:18:13.767Z,76.82
2019-04-26T09:19:15.042Z,76.72
2019-04-26T09:20:12.656Z,76.65
2019-04-26T09:21:13.289Z,76.14
2019-04-26T09:22:13.603Z,76.14
2019-04-26T09:23:12.626Z,76.25
2019-04-26T09:24:12.627Z,76.55
2019-04-26T09:25:12.646Z,76.34
2019-04-26T09:26:13.686Z,75.80
2019-04-26T09:27:12.586Z,75.84
2019-04-26T09:28:12.584Z,75.94
2019-04-26T09:29:12.905Z,75.63
2019-04-26T09:30:12.567Z,76.04
2019-04-26T09:31:15.378Z,76.59
2019-04-26T09:32:13.547Z,76.79
2019-04-26T09:33:12.668Z,76.07
2019-04-26T09:34:13.055Z,76.07
2019-04-26T09:35:15.189Z,76.48
2019-04-26T09:36:13.749Z,76.62
2019-04-26T09:37:14.606Z,76.62
2019-04-26T09:38:12.944Z,77.03
2019-04-26T09:39:12.470Z,77.03
2019-04-26T09:40:21.077Z,76.92
2019-04-26T09:41:13.469Z,77.03
2019-04-26T09:42:12.445Z,76.52
2019-04-26T09:43:15.042Z,76.72
2019-04-26T09:44:13.425Z,76.01
2019-04-26T09:45:12.436Z,75.40
2019-04-26T09:46:12.384Z,74.79
2019-04-26T09:47:12.398Z,74.08
2019-04-26T09:48:12.414Z,74.65
2019-04-26T09:49:12.989Z,74.24
2019-04-26T09:50:15.420Z,74.15
2019-04-26T09:51:12.810Z,74.04
2019-04-26T09:52:12.815Z,74.35
2019-04-26T09:53:14.265Z,73.54
2019-04-26T09:54:15.430Z,74.15
2019-04-26T09:55:14.844Z,73.63
2019-04-26T09:56:13.024Z,73.30
2019-04-26T09:57:12.805Z,73.09
2019-04-26T09:58:13.025Z,72.85
2019-04-26T09:59:12.256Z,71.43
2019-04-26T10:00:14.357Z,71.47
2019-04-26T10:01:12.411Z,72.38
2019-04-26T10:02:12.906Z,72.48
2019-04-26T10:03:13.035Z,71.91
2019-04-26T10:04:12.225Z,72.11
2019-04-26T10:05:13.548Z,72.52
2019-04-26T10:06:13.845Z,72.62
2019-04-26T10:07:13.744Z,72.86
2019-04-26T10:08:12.810Z,72.96
2019-04-26T10:09:12.976Z,72.96
2019-04-26T10:10:22.317Z,73.47
2019-04-26T10:11:13.134Z,74.01
2019-04-26T10:12:12.594Z,74.41
2019-04-26T10:13:14.911Z,75.02
2019-04-26T10:14:12.166Z,75.43
2019-04-26T10:15:12.093Z,75.95
2019-04-26T10:16:12.086Z,76.25
2019-04-26T10:17:15.819Z,76.35
2019-04-26T10:18:13.357Z,76.08
2019-04-26T10:19:12.063Z,75.98
2019-04-26T10:20:12.043Z,75.67
2019-04-26T10:21:12.032Z,75.88
2019-04-26T10:22:12.003Z,75.57
2019-04-26T10:23:11.999Z,76.90
2019-04-26T10:24:12.482Z,76.90
2019-04-26T10:25:16.599Z,77.10
2019-04-26T10:26:11.993Z,76.90
2019-04-26T10:27:12.972Z,78.02
2019-04-26T10:28:15.883Z,78.12
2019-04-26T10:29:11.946Z,78.42
2019-04-26T10:30:12.824Z,79.64
2019-04-26T10:31:13.484Z,79.07
2019-04-26T10:32:21.869Z,79.79
2019-04-26T10:33:13.144Z,81.04
2019-04-26T10:34:13.690Z,81.76
2019-04-26T10:35:12.731Z,81.52
2019-04-26T10:36:11.932Z,81.35
2019-04-26T10:37:12.352Z,81.56
2019-04-26T10:38:11.845Z,82.07
2019-04-26T10:39:11.833Z,82.47
2019-04-26T10:40:11.920Z,82.37
2019-04-26T10:41:11.802Z,82.88
2019-04-26T10:42:11.883Z,81.86
2019-04-26T10:43:11.801Z,82.07
2019-04-26T10:44:11.814Z,83.23
2019-04-26T10:45:14.707Z,83.53
2019-04-26T10:46:11.762Z,83.94
2019-04-26T10:47:11.743Z,84.20
2019-04-26T10:48:13.979Z,84.20
2019-04-26T10:49:12.156Z,82.88
2019-04-26T10:50:11.711Z,83.43
2019-04-26T10:51:11.711Z,83.94
2019-04-26T10:52:12.034Z,84.25
2019-04-26T10:53:11.769Z,83.94
2019-04-26T10:54:12.042Z,83.63
2019-04-26T10:55:12.268Z,83.90
2019-04-26T10:56:12.215Z,83.90
2019-04-26T10:57:11.835Z,84.04
2019-04-26T10:58:12.104Z,83.73
2019-04-26T10:59:11.660Z,83.84
2019-04-26T11:00:14.086Z,84.41
2019-04-26T11:01:12.586Z,83.80
2019-04-26T11:02:11.590Z,84.20
2019-04-26T11:03:11.602Z,83.49
2019-04-26T11:04:11.606Z,83.29
2019-04-26T11:05:18.136Z,83.49
2019-04-26T11:06:12.638Z,83.80
2019-04-26T11:07:11.546Z,83.39
2019-04-26T11:08:11.513Z,83.90
2019-04-26T11:09:12.131Z,84.20
2019-04-26T11:10:11.911Z,83.09
2019-04-26T11:11:13.229Z,83.70
2019-04-26T11:12:12.930Z,84.00
2019-04-26T11:13:12.161Z,83.49
2019-04-26T11:14:13.768Z,84.31
2019-04-26T11:15:11.972Z,84.72
2019-04-26T11:16:12.213Z,85.22
2019-04-26T11:17:16.025Z,84.61
2019-04-26T11:18:13.317Z,84.72
2019-04-26T11:19:11.401Z,84.82
2019-04-26T11:20:12.046Z,84.82
2019-04-26T11:21:11.369Z,85.84
2019-04-26T11:22:11.360Z,86.24
2019-04-26T11:23:12.913Z,85.57
2019-04-26T11:24:15.181Z,85.77
2019-04-26T11:25:12.668Z,85.88
2019-04-26T11:26:11.640Z,85.98
2019-04-26T11:27:11.931Z,85.57
2019-04-26T11:28:12.456Z,86.22
2019-04-26T11:29:11.289Z,85.61
2019-04-26T11:30:18.831Z,85.98
2019-04-26T11:31:12.554Z,85.57
2019-04-26T11:32:11.369Z,85.37
2019-04-26T11:33:12.771Z,85.22
2019-04-26T11:34:14.201Z,85.13
2019-04-26T11:35:11.399Z,85.08
2019-04-26T11:36:11.577Z,84.27
2019-04-26T11:37:13.470Z,84.47
2019-04-26T11:38:12.196Z,84.12
2019-04-26T11:39:11.455Z,84.23
2019-04-26T11:40:14.504Z,83.31
2019-04-26T11:41:11.787Z,83.82
2019-04-26T11:42:11.743Z,84.12
2019-04-26T11:43:11.534Z,84.19
2019-04-26T11:44:11.117Z,84.29
2019-04-26T11:45:14.611Z,84.50
2019-04-26T11:46:11.137Z,84.19
2019-04-26T11:47:11.607Z,83.51
2019-04-26T11:48:12.131Z,83.62
2019-04-26T11:49:13.571Z,84.64
2019-04-26T11:50:16.074Z,84.53
2019-04-26T11:51:14.570Z,84.88
2019-04-26T11:52:18.697Z,84.74
2019-04-26T11:53:11.341Z,83.82
2019-04-26T11:54:12.271Z,84.12
2019-04-26T11:55:11.137Z,83.92
2019-04-26T11:56:11.701Z,84.29
2019-04-26T11:57:12.113Z,84.09
2019-04-26T11:58:10.986Z,83.78
2019-04-26T11:59:10.956Z,83.17
2019-04-26T12:00:12.591Z,83.17
2019-04-26T12:01:11.356Z,83.68
2019-04-26T12:02:12.238Z,83.37
2019-04-26T12:03:11.918Z,83.42
2019-04-26T12:04:11.701Z,83.62
2019-04-26T12:05:10.897Z,83.31
2019-04-26T12:06:10.966Z,84.03
2019-04-26T12:07:10.875Z,83.78
2019-04-26T12:08:12.337Z,83.48
2019-04-26T12:09:10.867Z,83.58
2019-04-26T12:10:11.369Z,82.66
2019-04-26T12:11:18.265Z,83.37
2019-04-26T12:12:13.073Z,83.17
2019-04-26T12:13:10.841Z,83.31
2019-04-26T12:14:20.239Z,83.01
2019-04-26T12:15:12.241Z,83.72
2019-04-26T12:16:14.550Z,83.72
2019-04-26T12:17:11.795Z,83.51
2019-04-26T12:18:11.182Z,84.03
2019-04-26T12:19:14.311Z,84.53
2019-04-26T12:20:11.766Z,84.23
2019-04-26T12:21:11.119Z,84.12
2019-04-26T12:22:11.065Z,84.09
2019-04-26T12:23:13.651Z,84.50
2019-04-26T12:24:12.296Z,83.68
2019-04-26T12:25:10.702Z,83.84
2019-04-26T12:26:10.920Z,83.34
2019-04-26T12:27:10.993Z,82.82
2019-04-26T12:28:11.241Z,83.03
2019-04-26T12:29:53.562Z,84.05
2019-04-26T12:30:11.776Z,84.01
2019-04-26T12:31:10.619Z,83.40
2019-04-26T12:32:10.609Z,83.50
2019-04-26T12:33:10.591Z,81.16
2019-04-26T12:34:14.101Z,81.46
2019-04-26T12:35:12.002Z,80.90
2019-04-26T12:36:13.445Z,82.01
2019-04-26T12:37:12.533Z,82.99
2019-04-26T12:38:11.594Z,83.20
2019-04-26T12:39:10.885Z,83.67
2019-04-26T12:40:11.366Z,83.22
2019-04-26T12:41:12.145Z,82.37
2019-04-26T12:42:14.426Z,80.88
2019-04-26T12:43:11.695Z,80.17
2019-04-26T12:44:10.484Z,81.49
2019-04-26T12:45:12.285Z,81.49
2019-04-26T12:46:14.187Z,81.39
2019-04-26T12:47:10.695Z,81.79
2019-04-26T12:48:12.359Z,82.10
2019-04-26T12:49:11.431Z,81.59
2019-04-26T12:50:10.848Z,81.49
2019-04-26T12:51:12.101Z,81.90
2019-04-26T12:52:11.333Z,81.70
2019-04-26T12:53:10.693Z,81.59
2019-04-26T12:54:11.503Z,80.62
2019-04-26T12:55:13.720Z,80.41